Time;durP1;ratioP1;P1;durP2;ratioP2;P2;SDS_P1;SDS_P2;PMS_P1;PMS_P2;Temp;Humidity;BMP_temperature;BMP_pressure;BME280_temperature;BME280_humidity;BME280_pressure;Samples;Min_cycle;Max_cycle;Signal;HPM_P1;HPM_P2
2024/01/07 00:00:03;;;;;;;21.80;16.83;;;;;;;4.48;100.00;95175.22;7398096;19;20383;-90
2024/01/07 00:02:44;;;;;;;20.37;16.13;;;;;;;4.25;100.00;95132.03;7396941;19;20419;-91
2024/01/07 00:05:25;;;;;;;19.87;15.23;;;;;;;4.64;100.00;95219.91;7399948;19;20361;-90
2024/01/07 00:08:07;;;;;;;17.43;13.90;;;;;;;4.43;100.00;95177.91;7397941;19;20476;-90
2024/01/07 00:10:48;;;;;;;22.27;14.90;;;;;;;4.46;100.00;95178.13;7397640;19;20710;-90
2024/01/07 00:13:29;;;;;;;21.23;16.43;;;;;;;3.80;100.00;95088.38;7396678;19;20404;-90
2024/01/07 00:16:10;;;;;;;26.70;15.93;;;;;;;4.14;100.00;95134.78;7395716;19;20385;-90
2024/01/07 00:18:51;;;;;;;16.50;14.03;;;;;;;4.14;100.00;95116.63;7397715;19;20361;-90
2024/01/07 00:21:34;;;;;;;20.30;15.90;;;;;;;4.35;100.00;95160.41;7397419;19;20681;-90
2024/01/07 00:24:15;;;;;;;20.30;15.87;;;;;;;4.20;100.00;95162.19;7398159;19;20460;-90
2024/01/07 00:27:00;;;;;;;21.50;14.90;;;;;;;4.58;100.00;95200.25;7397285;19;20380;-90
2024/01/07 00:29:41;;;;;;;15.80;14.20;;;;;;;4.00;100.00;95118.44;7397441;19;20705;-90
2024/01/07 00:32:22;;;;;;;19.53;14.23;;;;;;;4.10;100.00;95130.44;7396212;19;20412;-90
2024/01/07 00:35:03;;;;;;;20.40;11.50;;;;;;;4.08;100.00;95137.75;7394863;19;20377;-90
2024/01/07 00:37:44;;;;;;;13.83;10.27;;;;;;;4.31;100.00;95172.41;7396654;19;20373;-90
2024/01/07 00:40:26;;;;;;;17.80;12.53;;;;;;;4.39;100.00;95189.94;7397293;19;20365;-90
2024/01/07 00:43:07;;;;;;;15.97;12.23;;;;;;;3.99;100.00;95145.44;7395532;19;20910;-90
2024/01/07 00:45:48;;;;;;;15.97;12.23;;;;;;;4.46;100.00;95216.31;7396580;19;20387;-90
2024/01/07 00:48:29;;;;;;;14.47;12.17;;;;;;;4.22;100.00;95193.06;7396783;19;20401;-90
2024/01/07 00:51:11;;;;;;;15.20;11.60;;;;;;;4.33;100.00;95196.28;7397008;19;20482;-90
2024/01/07 00:53:52;;;;;;;17.67;12.60;;;;;;;3.82;100.00;95120.00;7394636;19;20449;-90
2024/01/07 00:56:33;;;;;;;16.80;11.20;;;;;;;3.88;100.00;95136.28;7396811;19;20737;-90
2024/01/07 00:59:15;;;;;;;16.03;11.30;;;;;;;3.83;100.00;95137.13;7417299;19;20404;-87
2024/01/07 01:01:56;;;;;;;15.17;12.17;;;;;;;4.18;100.00;95202.50;7426085;19;20453;-89
2024/01/07 01:04:40;;;;;;;12.83;10.73;;;;;;;3.83;100.00;95165.69;7427630;19;20377;-89
2024/01/07 01:07:21;;;;;;;14.43;10.80;;;;;;;4.03;100.00;95185.34;7427119;19;21006;-90
2024/01/07 01:10:02;;;;;;;11.67;10.00;;;;;;;4.07;100.00;95188.91;7426964;19;20389;-86
2024/01/07 01:12:43;;;;;;;12.43;10.13;;;;;;;4.22;100.00;95239.81;7407106;19;20436;-90
2024/01/07 01:15:24;;;;;;;20.73;10.70;;;;;;;3.81;100.00;95190.34;7406409;19;20388;-91
2024/01/07 01:18:05;;;;;;;12.23;10.07;;;;;;;4.10;100.00;95236.88;7407938;19;20384;-90
2024/01/07 01:20:47;;;;;;;13.00;9.63;;;;;;;3.74;100.00;95203.69;7407681;19;20364;-90
2024/01/07 01:23:28;;;;;;;10.10;8.13;;;;;;;3.94;100.00;95232.97;7399881;19;20431;-90
2024/01/07 01:26:09;;;;;;;12.07;8.70;;;;;;;3.83;100.00;95220.16;7395881;19;20373;-91
2024/01/07 01:28:51;;;;;;;10.40;7.37;;;;;;;3.24;100.00;95128.13;7395781;19;20427;-90
2024/01/07 01:31:32;;;;;;;12.03;8.60;;;;;;;3.26;100.00;95146.75;7395741;19;20380;-91
2024/01/07 01:34:13;;;;;;;12.17;7.53;;;;;;;4.18;100.00;95288.16;7395414;19;20401;-90
2024/01/07 01:36:54;;;;;;;16.80;10.00;;;;;;;3.37;100.00;95182.94;7395454;19;20385;-90
2024/01/07 01:39:35;;;;;;;11.83;8.43;;;;;;;3.31;100.00;95171.88;7395181;19;20858;-90
2024/01/07 01:42:16;;;;;;;11.67;8.63;;;;;;;3.52;100.00;95219.03;7394962;19;20417;-91
2024/01/07 01:45:01;;;;;;;12.50;9.80;;;;;;;4.00;100.00;95292.34;7395138;19;20929;-90
2024/01/07 01:47:43;;;;;;;10.07;8.53;;;;;;;3.28;100.00;95188.72;7401458;19;20404;-91
2024/01/07 01:50:25;;;;;;;16.13;9.80;;;;;;;3.38;100.00;95218.94;7402226;19;20381;-91
2024/01/07 01:53:06;;;;;;;17.50;9.47;;;;;;;2.91;100.00;95142.06;7400392;19;20423;-90
2024/01/07 01:55:48;;;;;;;14.87;10.60;;;;;;;3.33;100.00;95200.09;7401080;19;20409;-90
2024/01/07 01:58:30;;;;;;;11.87;8.77;;;;;;;3.22;100.00;95189.84;7402061;19;20866;-90
2024/01/07 02:01:11;;;;;;;12.93;9.30;;;;;;;3.60;100.00;95268.47;7402192;19;20431;-90
2024/01/07 02:03:53;;;;;;;12.13;9.43;;;;;;;3.18;100.00;95207.03;7399445;19;20412;-90
2024/01/07 02:06:34;;;;;;;11.87;9.60;;;;;;;3.58;100.00;95262.03;7402187;19;20402;-92
2024/01/07 02:09:16;;;;;;;17.50;10.87;;;;;;;4.00;100.00;95322.72;7402023;19;20388;-90
2024/01/07 02:12:03;;;;;;;18.50;13.60;;;;;;;3.20;100.00;95196.38;7401555;19;20400;-91
2024/01/07 02:14:44;;;;;;;16.97;12.50;;;;;;;3.43;100.00;95244.03;7401711;19;20839;-91
2024/01/07 02:17:26;;;;;;;15.53;10.53;;;;;;;3.17;100.00;95202.91;7401389;19;20376;-90
2024/01/07 02:20:08;;;;;;;13.77;10.13;;;;;;;3.11;100.00;95190.25;7401538;19;20659;-89
2024/01/07 02:22:49;;;;;;;15.50;11.00;;;;;;;3.65;100.00;95290.19;7400566;19;20387;-90
2024/01/07 02:25:37;;;;;;;19.30;11.43;;;;;;;3.30;100.00;95229.97;7401588;19;20874;-91
2024/01/07 02:28:19;;;;;;;14.30;10.57;;;;;;;3.08;100.00;95194.19;7401846;19;20468;-91
2024/01/07 02:31:00;;;;;;;16.97;11.27;;;;;;;3.12;100.00;95215.13;7401292;19;20710;-90
2024/01/07 02:33:41;;;;;;;18.60;13.43;;;;;;;3.26;100.00;95234.91;7399019;19;20409;-90
2024/01/07 02:36:22;;;;;;;14.60;10.33;;;;;;;3.03;100.00;95203.81;7398642;19;20410;-90
2024/01/07 02:39:04;;;;;;;18.77;9.63;;;;;;;2.85;100.00;95189.78;7402763;19;20380;-90
2024/01/07 02:41:46;;;;;;;19.03;10.27;;;;;;;2.47;100.00;95137.88;7402523;19;20369;-90
2024/01/07 02:44:28;;;;;;;16.00;10.70;;;;;;;2.65;100.00;95164.91;7401261;19;20400;-91
2024/01/07 02:47:09;;;;;;;14.43;10.50;;;;;;;3.12;100.00;95244.41;7400818;19;20396;-90
2024/01/07 02:49:50;;;;;;;13.73;10.97;;;;;;;3.30;100.00;95274.03;7400385;19;20369;-90
2024/01/07 02:52:32;;;;;;;16.07;11.23;;;;;;;2.75;100.00;95192.47;7400196;19;20401;-90
2024/01/07 02:55:13;;;;;;;13.90;9.20;;;;;;;3.69;100.00;95337.88;7399590;19;20376;-90
2024/01/07 02:57:54;;;;;;;11.43;8.90;;;;;;;2.66;100.00;95171.63;7399491;19;20397;-90
2024/01/07 03:00:35;;;;;;;10.90;9.10;;;;;;;3.28;100.00;95297.63;7400282;19;20389;-91
2024/01/07 03:03:16;;;;;;;14.50;10.40;;;;;;;3.10;100.00;95272.44;7399323;19;20457;-91
2024/01/07 03:05:57;;;;;;;16.37;10.60;;;;;;;2.89;100.00;95224.44;7411949;19;20441;-90
2024/01/07 03:08:38;;;;;;;14.77;9.33;;;;;;;2.67;100.00;95210.19;7415946;19;20914;-90
2024/01/07 03:11:19;;;;;;;14.37;10.20;;;;;;;3.47;100.00;95321.03;7430189;19;20415;-88
2024/01/07 03:14:00;;;;;;;17.97;10.90;;;;;;;3.01;100.00;95264.47;7431339;19;20361;-88
2024/01/07 03:16:41;;;;;;;14.30;9.77;;;;;;;2.79;100.00;95232.34;7431204;19;20389;-87
2024/01/07 03:19:22;;;;;;;19.60;10.67;;;;;;;2.84;100.00;95245.25;7415807;19;20369;-91
2024/01/07 03:22:06;;;;;;;15.47;11.27;;;;;;;2.90;100.00;95268.25;7403895;19;20409;-90
2024/01/07 03:24:48;;;;;;;12.93;10.13;;;;;;;2.67;100.00;95241.28;7400761;19;20658;-91
2024/01/07 03:27:29;;;;;;;13.43;10.97;;;;;;;2.68;100.00;95253.16;7400977;19;20685;-90
2024/01/07 03:30:10;;;;;;;14.70;9.83;;;;;;;2.40;100.00;95215.88;7402828;19;20364;-91
2024/01/07 03:32:51;;;;;;;13.43;9.70;;;;;;;2.39;100.00;95229.09;7398582;19;20404;-90
2024/01/07 03:35:32;;;;;;;11.47;7.70;;;;;;;3.08;100.00;95352.28;7398284;19;20396;-91
2024/01/07 03:38:13;;;;;;;13.67;10.20;;;;;;;2.59;100.00;95291.06;7399277;19;20405;-91
2024/01/07 03:40:54;;;;;;;13.60;10.67;;;;;;;2.34;100.00;95248.03;7399854;19;20361;-92
2024/01/07 03:43:35;;;;;;;11.13;9.07;;;;;;;2.36;100.00;95269.25;7397607;19;20424;-91
2024/01/07 03:46:17;;;;;;;10.80;8.13;;;;;;;2.20;100.00;95230.81;7401433;19;20423;-91
2024/01/07 03:48:58;;;;;;;12.30;9.17;;;;;;;2.44;100.00;95273.06;7413976;19;20391;-90
2024/01/07 03:51:39;;;;;;;13.03;9.53;;;;;;;2.89;100.00;95352.19;7412719;19;20379;-91
2024/01/07 03:54:20;;;;;;;12.00;8.23;;;;;;;1.86;100.00;95221.25;7413582;19;20456;-90
2024/01/07 03:57:01;;;;;;;10.80;8.93;;;;;;;2.10;100.00;95258.34;7413467;19;20523;-91
2024/01/07 03:59:42;;;;;;;12.00;8.07;;;;;;;2.26;100.00;95264.16;7409592;19;20393;-90
2024/01/07 04:02:23;;;;;;;11.70;7.40;;;;;;;2.00;100.00;95231.75;7396886;19;20463;-91
2024/01/07 04:05:05;;;;;;;17.23;10.53;;;;;;;2.72;100.00;95350.00;7398449;19;20870;-91
2024/01/07 04:07:46;;;;;;;9.83;7.93;;;;;;;2.22;100.00;95276.06;7398920;19;20376;-91
2024/01/07 04:10:27;;;;;;;11.17;8.07;;;;;;;2.53;100.00;95336.19;7397065;19;20391;-90
2024/01/07 04:13:08;;;;;;;14.37;9.40;;;;;;;1.95;100.00;95236.94;7397447;19;20397;-91
2024/01/07 04:15:49;;;;;;;14.50;9.00;;;;;;;2.25;100.00;95272.97;7397050;19;20380;-91
2024/01/07 04:18:30;;;;;;;12.50;8.40;;;;;;;2.14;100.00;95262.97;7398351;19;20483;-90
2024/01/07 04:21:12;;;;;;;12.93;8.57;;;;;;;2.46;100.00;95304.63;7397861;19;20381;-90
2024/01/07 04:23:53;;;;;;;12.70;9.63;;;;;;;2.16;100.00;95264.22;7398018;19;20501;-90
2024/01/07 04:26:34;;;;;;;10.53;8.23;;;;;;;2.36;100.00;95305.50;7398278;19;20381;-91
2024/01/07 04:29:15;;;;;;;12.87;9.73;;;;;;;1.96;100.00;95262.53;7398292;19;20373;-90
2024/01/07 04:31:56;;;;;;;12.80;9.30;;;;;;;2.83;100.00;95384.38;7396985;19;20413;-90
2024/01/07 04:34:37;;;;;;;11.00;9.20;;;;;;;1.72;100.00;95238.41;7397098;19;20385;-90
2024/01/07 04:37:18;;;;;;;15.30;8.27;;;;;;;2.57;100.00;95349.34;7396945;19;20388;-91
2024/01/07 04:40:00;;;;;;;12.53;8.63;;;;;;;1.91;100.00;95236.72;7397055;19;20383;-90
2024/01/07 04:42:41;;;;;;;11.43;8.63;;;;;;;2.27;100.00;95293.41;7397889;19;20488;-90
2024/01/07 04:45:22;;;;;;;13.23;8.93;;;;;;;1.56;100.00;95205.91;7397622;19;20376;-90
2024/01/07 04:48:04;;;;;;;13.60;9.90;;;;;;;1.93;100.00;95259.72;7398417;19;20654;-90
2024/01/07 04:50:45;;;;;;;14.10;8.70;;;;;;;1.98;100.00;95265.66;7397460;19;20388;-91
2024/01/07 04:53:26;;;;;;;12.80;9.20;;;;;;;2.07;100.00;95284.72;7397307;19;20389;-90
2024/01/07 04:56:07;;;;;;;15.17;10.03;;;;;;;2.02;100.00;95271.84;7395723;19;20385;-90
2024/01/07 04:58:49;;;;;;;14.70;8.73;;;;;;;1.91;100.00;95260.00;7397247;19;20706;-91
2024/01/07 05:01:32;;;;;;;11.70;8.20;;;;;;;2.26;100.00;95322.91;7395328;19;20407;-90
2024/01/07 05:04:13;;;;;;;11.50;7.53;;;;;;;2.08;100.00;95306.97;7396706;19;20389;-90
2024/01/07 05:06:55;;;;;;;9.80;7.93;;;;;;;2.81;100.00;95409.00;7397093;19;20356;-91
2024/01/07 05:09:36;;;;;;;12.27;9.57;;;;;;;2.00;100.00;95289.44;7395989;19;20391;-90
2024/01/07 05:12:17;;;;;;;10.70;7.50;;;;;;;2.22;100.00;95322.66;7395333;19;20401;-90
2024/01/07 05:14:58;;;;;;;13.83;8.80;;;;;;;2.36;100.00;95346.94;7395882;19;20388;-90
2024/01/07 05:17:40;;;;;;;10.57;8.17;;;;;;;1.83;100.00;95286.47;7396420;19;20373;-90
2024/01/07 05:20:21;;;;;;;12.53;8.50;;;;;;;2.27;100.00;95350.34;7398191;19;20397;-90
2024/01/07 05:23:02;;;;;;;10.10;8.67;;;;;;;2.21;100.00;95338.47;7402426;19;20388;-91
2024/01/07 05:25:44;;;;;;;9.40;7.33;;;;;;;2.69;100.00;95414.53;7404209;19;20468;-90
2024/01/07 05:28:25;;;;;;;12.67;8.07;;;;;;;1.41;100.00;95240.38;7403241;19;20384;-90
2024/01/07 05:31:14;;;;;;;10.70;7.73;;;;;;;2.51;100.00;95410.00;7403405;19;20357;-91
2024/01/07 05:33:55;;;;;;;12.27;8.50;;;;;;;1.64;100.00;95263.00;7402889;19;20380;-92
2024/01/07 05:36:37;;;;;;;12.00;7.27;;;;;;;1.54;100.00;95270.81;7400423;19;20387;-91
2024/01/07 05:39:18;;;;;;;12.60;8.17;;;;;;;1.95;100.00;95324.91;7402917;19;20391;-90
2024/01/07 05:41:59;;;;;;;12.60;7.33;;;;;;;1.47;100.00;95250.44;7402642;19;20376;-91
2024/01/07 05:44:40;;;;;;;12.17;8.23;;;;;;;1.49;100.00;95263.88;7403261;19;20401;-91
2024/01/07 05:47:21;;;;;;;16.40;9.03;;;;;;;1.72;100.00;95316.00;7402414;19;20428;-90
2024/01/07 05:50:03;;;;;;;10.90;6.93;;;;;;;1.85;100.00;95333.50;7403447;19;20369;-90
2024/01/07 05:52:44;;;;;;;13.83;9.00;;;;;;;1.78;100.00;95343.38;7402985;19;20393;-91
2024/01/07 05:55:25;;;;;;;10.63;8.60;;;;;;;1.62;100.00;95319.41;7402824;19;20377;-91
2024/01/07 05:58:07;;;;;;;14.37;9.67;;;;;;;1.86;100.00;95381.63;7402030;19;20682;-90
2024/01/07 06:00:48;;;;;;;12.23;8.63;;;;;;;2.14;100.00;95413.81;7401812;19;20388;-91
2024/01/07 06:03:29;;;;;;;13.77;11.07;;;;;;;1.43;100.00;95324.41;7400569;19;20373;-91
2024/01/07 06:06:13;;;;;;;16.20;10.57;;;;;;;1.56;100.00;95351.47;7402192;19;20384;-91
2024/01/07 06:08:54;;;;;;;14.37;10.20;;;;;;;1.80;100.00;95404.13;7403018;19;20396;-91
2024/01/07 06:11:35;;;;;;;13.60;9.90;;;;;;;1.81;100.00;95386.78;7401929;19;20697;-91
2024/01/07 06:14:16;;;;;;;12.73;8.63;;;;;;;1.92;100.00;95398.66;7403756;19;20364;-91
2024/01/07 06:16:57;;;;;;;9.63;7.23;;;;;;;2.12;100.00;95426.25;7402606;19;20393;-91
2024/01/07 06:19:38;;;;;;;11.37;8.23;;;;;;;1.85;100.00;95390.41;7402728;19;20388;-90
2024/01/07 06:22:20;;;;;;;13.30;9.30;;;;;;;2.30;100.00;95446.34;7401631;19;20443;-90
2024/01/07 06:25:01;;;;;;;17.17;11.83;;;;;;;2.33;100.00;95455.41;7403213;19;20690;-91
2024/01/07 06:27:42;;;;;;;15.50;12.00;;;;;;;1.38;100.00;95333.97;7403096;19;20422;-91
2024/01/07 06:30:23;;;;;;;15.57;10.27;;;;;;;1.36;100.00;95330.88;7402173;19;20389;-90
2024/01/07 06:33:05;;;;;;;11.80;9.20;;;;;;;1.40;100.00;95327.47;7397935;19;20437;-91
2024/01/07 06:35:46;;;;;;;10.83;9.63;;;;;;;1.35;100.00;95324.94;7399672;19;20393;-91
2024/01/07 06:38:27;;;;;;;13.90;10.93;;;;;;;1.42;100.00;95358.25;7401721;19;20397;-92
2024/01/07 06:41:12;;;;;;;11.53;10.07;;;;;;;1.97;100.00;95441.84;7400696;19;20414;-91
2024/01/07 06:43:56;;;;;;;16.40;10.33;;;;;;;1.63;100.00;95385.56;7398460;19;20421;-92
2024/01/07 06:46:37;;;;;;;15.90;9.80;;;;;;;1.70;100.00;95393.84;7400637;19;20878;-90
2024/01/07 06:49:18;;;;;;;17.97;14.30;;;;;;;1.47;100.00;95369.34;7403551;19;20424;-90
2024/01/07 06:52:00;;;;;;;23.50;12.57;;;;;;;1.42;100.00;95382.28;7405147;19;20425;-90
2024/01/07 06:54:42;;;;;;;17.13;11.80;;;;;;;1.22;100.00;95372.00;7401686;19;20380;-92
2024/01/07 06:57:23;;;;;;;19.80;10.93;;;;;;;1.78;100.00;95444.22;7403062;19;20385;-91
2024/01/07 07:00:07;;;;;;;17.00;12.77;;;;;;;1.39;100.00;95372.47;7402637;19;20392;-90
2024/01/07 07:02:49;;;;;;;17.63;12.40;;;;;;;1.55;100.00;95411.97;7401340;19;20431;-91
2024/01/07 07:05:30;;;;;;;17.40;12.97;;;;;;;0.83;100.00;95304.66;7402298;19;20392;-90
2024/01/07 07:08:11;;;;;;;16.63;12.83;;;;;;;1.27;100.00;95373.78;7403850;19;20853;-90
2024/01/07 07:10:52;;;;;;;17.27;10.20;;;;;;;1.38;100.00;95411.50;7402599;19;20452;-90
2024/01/07 07:13:33;;;;;;;19.70;13.17;;;;;;;1.80;100.00;95484.31;7400811;19;20404;-90
2024/01/07 07:16:14;;;;;;;20.20;14.30;;;;;;;1.01;100.00;95386.75;7400524;19;20731;-90
2024/01/07 07:18:56;;;;;;;23.37;14.80;;;;;;;0.96;100.00;95380.81;7404138;19;20756;-91
2024/01/07 07:21:38;;;;;;;23.80;14.03;;;;;;;1.34;100.00;95452.59;7401435;19;20379;-91
2024/01/07 07:24:19;;;;;;;21.57;13.97;;;;;;;1.26;100.00;95437.63;7402661;19;20377;-92
2024/01/07 07:27:01;;;;;;;20.10;13.37;;;;;;;0.92;100.00;95383.16;7403268;19;20361;-92
2024/01/07 07:29:42;;;;;;;17.50;13.33;;;;;;;0.85;100.00;95396.31;7401389;19;20393;-91
2024/01/07 07:32:23;;;;;;;17.47;12.40;;;;;;;1.76;100.00;95531.66;7401042;19;20425;-91
2024/01/07 07:35:04;;;;;;;12.17;9.83;;;;;;;1.09;100.00;95443.06;7401830;19;20393;-91
2024/01/07 07:37:46;;;;;;;18.27;12.67;;;;;;;0.85;100.00;95400.72;7404103;19;20384;-91
2024/01/07 07:40:27;;;;;;;18.87;13.63;;;;;;;-0.03;100.00;95285.59;7401596;19;21436;-90
2024/01/07 07:43:09;;;;;;;18.10;13.60;;;;;;;1.40;100.00;95499.88;7398857;19;20408;-91
2024/01/07 07:45:50;;;;;;;15.60;11.53;;;;;;;0.85;100.00;95411.03;7401002;19;20862;-90
2024/01/07 07:48:31;;;;;;;20.63;13.73;;;;;;;0.46;100.00;95415.91;7401837;19;20376;-90
2024/01/07 07:51:13;;;;;;;15.37;12.60;;;;;;;1.14;100.00;95507.66;7401985;19;20384;-91
2024/01/07 07:53:54;;;;;;;19.50;13.77;;;;;;;0.81;100.00;95438.41;7400026;19;20408;-91
2024/01/07 07:56:35;;;;;;;21.07;14.37;;;;;;;0.80;100.00;95463.47;7398780;19;20397;-91
2024/01/07 07:59:17;;;;;;;16.97;13.13;;;;;;;0.79;100.00;95469.66;7401082;19;20380;-91
2024/01/07 08:01:58;;;;;;;20.37;14.33;;;;;;;1.10;100.00;95516.19;7398518;19;20914;-90
2024/01/07 08:04:41;;;;;;;16.63;10.33;;;;;;;1.36;100.00;95579.00;7399443;19;20708;-90
2024/01/07 08:07:22;;;;;;;22.50;15.10;;;;;;;0.82;100.00;95523.38;7399330;19;20436;-91
2024/01/07 08:10:04;;;;;;;17.67;13.10;;;;;;;0.73;100.00;95496.50;7400393;19;20368;-91
2024/01/07 08:12:45;;;;;;;23.47;15.53;;;;;;;1.33;100.00;95593.22;7397941;19;20413;-90
2024/01/07 08:15:26;;;;;;;22.27;16.23;;;;;;;0.80;100.00;95517.69;7397289;19;20687;-91
2024/01/07 08:18:09;;;;;;;19.87;13.30;;;;;;;0.42;100.00;95475.00;7398328;19;20386;-90
2024/01/07 08:20:50;;;;;;;20.07;13.97;;;;;;;1.06;100.00;95572.75;7398372;19;20375;-90
2024/01/07 08:23:31;;;;;;;25.47;16.50;;;;;;;1.19;100.00;95580.00;7396868;19;20727;-90
2024/01/07 08:26:12;;;;;;;21.57;12.00;;;;;;;0.57;100.00;95476.84;7398606;19;20388;-90
2024/01/07 08:28:53;;;;;;;20.37;14.13;;;;;;;0.67;100.00;95509.66;7398455;19;20684;-90
2024/01/07 08:31:35;;;;;;;18.33;13.00;;;;;;;0.56;100.00;95514.78;7401469;19;20842;-90
2024/01/07 08:34:19;;;;;;;18.87;13.20;;;;;;;1.23;100.00;95614.63;7402273;19;20396;-91
2024/01/07 08:37:00;;;;;;;16.30;12.43;;;;;;;0.79;100.00;95559.28;7421141;19;20437;-89
2024/01/07 08:39:41;;;;;;;26.87;14.87;;;;;;;0.46;100.00;95498.50;7427707;19;20437;-89
2024/01/07 08:42:23;;;;;;;24.83;13.87;;;;;;;0.88;100.00;95568.81;7427061;19;20401;-88
2024/01/07 08:45:05;;;;;;;17.33;12.10;;;;;;;0.44;100.00;95523.78;7418772;19;20417;-90
2024/01/07 08:47:46;;;;;;;20.87;13.63;;;;;;;0.73;100.00;95531.88;7399999;19;20444;-90
2024/01/07 08:50:28;;;;;;;22.13;13.10;;;;;;;0.42;100.00;95511.16;7422660;19;20421;-90
2024/01/07 08:53:09;;;;;;;19.27;13.03;;;;;;;0.55;100.00;95533.13;7397319;19;20885;-91
2024/01/07 08:55:50;;;;;;;24.87;16.20;;;;;;;0.57;100.00;95539.56;7400140;19;20402;-91
2024/01/07 08:58:31;;;;;;;24.30;13.27;;;;;;;0.60;100.00;95538.28;7406450;19;20373;-90
2024/01/07 09:01:14;;;;;;;21.27;13.40;;;;;;;0.30;100.00;95497.69;7404960;19;20404;-91
2024/01/07 09:03:55;;;;;;;20.80;16.37;;;;;;;0.03;100.00;95475.41;7406931;19;20384;-91
2024/01/07 09:06:36;;;;;;;18.53;12.23;;;;;;;0.41;100.00;95532.81;7404552;19;20392;-90
2024/01/07 09:09:17;;;;;;;18.70;13.47;;;;;;;0.85;100.00;95604.72;7405195;19;20379;-90
2024/01/07 09:12:00;;;;;;;26.00;14.43;;;;;;;0.71;100.00;95583.78;7404209;19;20897;-91
2024/01/07 09:14:41;;;;;;;20.90;13.63;;;;;;;0.33;100.00;95510.84;7404781;19;20420;-91
2024/01/07 09:17:22;;;;;;;19.80;13.30;;;;;;;0.69;100.00;95564.41;7404621;19;20489;-91
2024/01/07 09:20:07;;;;;;;18.33;13.97;;;;;;;0.39;100.00;95539.28;7409285;19;20392;-90
2024/01/07 09:22:49;;;;;;;14.60;9.80;;;;;;;0.79;100.00;95613.50;7404922;19;20412;-90
2024/01/07 09:25:30;;;;;;;19.83;13.40;;;;;;;0.64;100.00;95588.41;7407147;19;20376;-90
2024/01/07 09:28:11;;;;;;;15.63;10.60;;;;;;;0.63;100.00;95589.44;7405362;19;20384;-91
2024/01/07 09:30:52;;;;;;;21.40;14.90;;;;;;;1.22;100.00;95679.50;7406949;19;20441;-90
2024/01/07 09:33:33;;;;;;;22.87;11.40;;;;;;;0.81;100.00;95608.84;7404604;19;20453;-91
2024/01/07 09:36:15;;;;;;;13.93;8.70;;;;;;;1.13;100.00;95661.13;7419792;19;20383;-90
2024/01/07 09:38:57;;;;;;;16.57;12.90;;;;;;;1.10;100.00;95653.88;7425746;19;20388;-90
2024/01/07 09:41:39;;;;;;;18.07;12.70;;;;;;;0.75;100.00;95623.53;7424669;19;20396;-89
2024/01/07 09:44:20;;;;;;;21.23;12.93;;;;;;;0.65;100.00;95602.88;7425043;19;20365;-91
2024/01/07 09:47:01;;;;;;;21.53;14.27;;;;;;;0.54;100.00;95598.69;7419320;19;20369;-91
2024/01/07 09:49:43;;;;;;;18.63;11.70;;;;;;;0.74;100.00;95632.31;7406515;19;20384;-92
2024/01/07 09:52:25;;;;;;;21.13;13.40;;;;;;;0.27;100.00;95552.38;7404167;19;20889;-89
2024/01/07 09:55:09;;;;;;;15.87;12.57;;;;;;;0.29;100.00;95561.41;7404444;19;20875;-91
2024/01/07 09:57:50;;;;;;;22.03;12.00;;;;;;;1.13;100.00;95688.78;7406967;19;20448;-92
2024/01/07 10:00:33;;;;;;;18.47;12.43;;;;;;;1.16;100.00;95688.25;7407075;19;20364;-91
2024/01/07 10:03:17;;;;;;;17.77;12.33;;;;;;;0.46;100.00;95592.19;7403177;19;20405;-91
2024/01/07 10:05:58;;;;;;;15.30;11.00;;;;;;;0.65;100.00;95630.50;7404938;19;20361;-91
2024/01/07 10:08:39;;;;;;;16.47;10.47;;;;;;;0.49;100.00;95625.22;7402641;19;20395;-92
2024/01/07 10:11:22;;;;;;;16.93;11.90;;;;;;;0.97;100.00;95689.75;7404257;19;20455;-91
2024/01/07 10:14:04;;;;;;;16.20;13.10;;;;;;;0.60;100.00;95626.84;7403913;19;20425;-91
2024/01/07 10:16:45;;;;;;;16.30;12.93;;;;;;;0.50;100.00;95621.66;7400819;19;20377;-91
2024/01/07 10:19:28;;;;;;;16.87;12.60;;;;;;;0.61;100.00;95641.28;7403490;19;20853;-91
2024/01/07 10:22:12;;;;;;;20.83;13.60;;;;;;;0.24;100.00;95579.47;7402273;19;20416;-92
2024/01/07 10:24:53;;;;;;;14.77;11.60;;;;;;;-0.17;100.00;95502.88;7404054;19;20385;-91
2024/01/07 10:27:38;;;;;;;18.53;12.10;;;;;;;0.32;100.00;95589.28;7405004;19;20874;-91
2024/01/07 10:30:19;;;;;;;16.40;11.40;;;;;;;-0.54;100.00;95454.75;7403840;19;20364;-91
2024/01/07 10:33:00;;;;;;;11.40;9.90;;;;;;;0.53;100.00;95612.63;7400841;19;20902;-91
2024/01/07 10:35:55;;;;;;;11.37;9.90;;;;;;;-0.66;100.00;95459.31;7401674;19;20380;-91
2024/01/07 10:38:37;;;;;;;14.03;10.87;;;;;;;0.36;100.00;95607.63;7402598;19;20392;-92
2024/01/07 10:41:21;;;;;;;17.37;11.30;;;;;;;0.12;100.00;95583.25;7404058;19;20862;-90
2024/01/07 10:44:05;;;;;;;16.30;11.77;;;;;;;-0.18;100.00;95545.16;7405468;19;20440;-91
2024/01/07 10:46:47;;;;;;;17.93;12.53;;;;;;;0.06;100.00;95579.09;7404864;19;20381;-90
2024/01/07 10:49:28;;;;;;;10.07;8.40;;;;;;;0.17;100.00;95594.38;7404710;19;20669;-92
2024/01/07 10:52:11;;;;;;;14.50;9.83;;;;;;;0.11;100.00;95621.19;7402841;19;20408;-91
2024/01/07 10:54:56;;;;;;;16.27;9.93;;;;;;;0.40;100.00;95644.81;7402896;19;20385;-91
2024/01/07 10:57:41;;;;;;;13.23;9.63;;;;;;;0.90;100.00;95718.41;7403459;19;20376;-91
2024/01/07 11:00:23;;;;;;;16.63;10.77;;;;;;;0.04;100.00;95589.66;7402659;19;20384;-91
2024/01/07 11:03:22;;;;;;;17.17;10.93;;;;;;;0.16;100.00;95621.19;7402445;19;20416;-91
2024/01/07 11:06:39;;;;;;;13.50;9.33;;;;;;;0.74;100.00;95711.59;7404330;19;20854;-90
2024/01/07 11:09:29;;;;;;;17.83;10.97;;;;;;;-0.28;100.00;95543.31;7404187;19;20862;-91
2024/01/07 11:12:11;;;;;;;15.33;11.57;;;;;;;0.40;100.00;95675.78;7403532;19;20400;-91
2024/01/07 11:14:52;;;;;;;21.23;12.10;;;;;;;0.14;100.00;95632.78;7404050;19;20377;-91
2024/01/07 11:17:37;;;;;;;14.80;10.60;;;;;;;0.88;100.00;95731.53;7403768;19;20409;-91
2024/01/07 11:20:21;;;;;;;13.53;9.57;;;;;;;0.34;100.00;95687.09;7403595;19;20666;-91
2024/01/07 11:23:37;;;;;;;10.90;8.83;;;;;;;0.77;100.00;95737.72;7402560;19;20434;-91
2024/01/07 11:26:20;;;;;;;10.27;9.20;;;;;;;0.04;100.00;95615.44;7403277;19;20377;-91
2024/01/07 11:29:01;;;;;;;14.80;10.20;;;;;;;0.40;100.00;95675.00;7403468;19;20389;-91
2024/01/07 11:31:43;;;;;;;15.07;10.47;;;;;;;0.79;100.00;95737.47;7402909;19;20405;-91
2024/01/07 11:34:43;;;;;;;16.23;10.30;;;;;;;0.06;100.00;95634.03;7404004;19;20488;-91
2024/01/07 11:37:25;;;;;;;15.40;8.90;;;;;;;0.77;100.00;95729.97;7400998;19;20375;-92
2024/01/07 11:40:08;;;;;;;17.50;11.37;;;;;;;0.83;100.00;95736.69;7404043;19;20361;-90
2024/01/07 11:42:51;;;;;;;16.07;11.13;;;;;;;0.19;100.00;95635.41;7399772;19;20403;-90
2024/01/07 11:45:33;;;;;;;12.83;7.73;;;;;;;0.51;100.00;95659.34;7401113;19;20396;-90
2024/01/07 11:48:15;;;;;;;15.37;11.30;;;;;;;0.21;100.00;95623.78;7400991;19;20361;-90
2024/01/07 11:50:56;;;;;;;13.77;10.00;;;;;;;-0.61;100.00;95503.13;7404702;19;20353;-90
2024/01/07 11:53:37;;;;;;;12.63;9.20;;;;;;;-0.82;100.00;95491.16;7400176;19;20417;-91
2024/01/07 11:56:19;;;;;;;15.83;8.07;;;;;;;-0.85;100.00;95521.50;7399609;19;20440;-89
2024/01/07 11:59:01;;;;;;;10.80;8.23;;;;;;;-0.13;100.00;95614.81;7400884;19;20873;-91
2024/01/07 12:01:42;;;;;;;11.87;9.30;;;;;;;0.41;100.00;95697.22;7400665;19;20408;-91
2024/01/07 12:04:23;;;;;;;15.07;10.07;;;;;;;0.06;100.00;95646.91;7402192;19;20369;-90
2024/01/07 12:07:05;;;;;;;10.23;7.93;;;;;;;0.04;100.00;95646.41;7401287;19;20369;-92
2024/01/07 12:09:47;;;;;;;12.67;9.57;;;;;;;0.34;100.00;95695.59;7399528;19;20904;-91
2024/01/07 12:12:28;;;;;;;13.67;11.60;;;;;;;-0.08;100.00;95651.72;7399310;19;20430;-91
2024/01/07 12:15:11;;;;;;;15.67;10.37;;;;;;;-0.23;100.00;95627.63;7399447;19;20402;-91
2024/01/07 12:17:57;;;;;;;11.50;9.00;;;;;;;-0.65;100.00;95554.38;7399765;19;20368;-90
2024/01/07 12:20:39;;;;;;;10.53;7.40;;;;;;;0.67;100.00;95763.47;7399145;19;20669;-91
2024/01/07 12:23:20;;;;;;;10.17;8.73;;;;;;;0.23;100.00;95703.56;7398715;19;20768;-91
2024/01/07 12:26:09;;;;;;;8.17;6.47;;;;;;;-0.01;100.00;95660.03;7401257;19;20377;-90